sensor_id;sensor_type;location;lat;lon;timestamp;pressure;altitude;pressure_sealevel;temperature
60003;BMP280;46322;52.018;8.702;2022-12-29T00:02:52;98962.50;;;14.46
60003;BMP280;46322;52.018;8.702;2022-12-29T00:07:52;98983.44;;;14.44
60003;BMP280;46322;52.018;8.702;2022-12-29T00:12:53;98945.81;;;14.59
60003;BMP280;46322;52.018;8.702;2022-12-29T00:17:53;98939.34;;;13.95
60003;BMP280;46322;52.018;8.702;2022-12-29T00:22:53;98941.84;;;14.32
60003;BMP280;46322;52.018;8.702;2022-12-29T00:27:53;98921.00;;;13.86
60003;BMP280;46322;52.018;8.702;2022-12-29T00:32:53;98915.97;;;14.29
60003;BMP280;46322;52.018;8.702;2022-12-29T00:37:53;98920.16;;;14.33
60003;BMP280;46322;52.018;8.702;2022-12-29T00:42:55;98889.28;;;14.25
60003;BMP280;46322;52.018;8.702;2022-12-29T00:47:55;98876.97;;;14.03
60003;BMP280;46322;52.018;8.702;2022-12-29T00:52:55;98896.66;;;14.53
60003;BMP280;46322;52.018;8.702;2022-12-29T00:57:55;98888.84;;;14.16
60003;BMP280;46322;52.018;8.702;2022-12-29T01:02:55;98869.19;;;14.46
60003;BMP280;46322;52.018;8.702;2022-12-29T01:07:55;98899.88;;;14.15
60003;BMP280;46322;52.018;8.702;2022-12-29T01:12:56;98868.41;;;14.34
60003;BMP280;46322;52.018;8.702;2022-12-29T01:17:56;98859.13;;;14.07
60003;BMP280;46322;52.018;8.702;2022-12-29T01:22:56;98867.72;;;14.62
60003;BMP280;46322;52.018;8.702;2022-12-29T01:27:56;98852.66;;;14.15
60003;BMP280;46322;52.018;8.702;2022-12-29T01:32:56;98835.19;;;14.18
60003;BMP280;46322;52.018;8.702;2022-12-29T01:37:56;98858.91;;;14.51
60003;BMP280;46322;52.018;8.702;2022-12-29T01:42:56;98843.63;;;14.30
60003;BMP280;46322;52.018;8.702;2022-12-29T01:47:57;98836.75;;;14.33
60003;BMP280;46322;52.018;8.702;2022-12-29T01:53:00;98826.56;;;14.53
60003;BMP280;46322;52.018;8.702;2022-12-29T01:58:02;98814.69;;;14.29
60003;BMP280;46322;52.018;8.702;2022-12-29T02:03:04;98823.59;;;14.83
60003;BMP280;46322;52.018;8.702;2022-12-29T02:08:06;98827.66;;;14.45
60003;BMP280;46322;52.018;8.702;2022-12-29T02:13:06;98829.28;;;14.63
60003;BMP280;46322;52.018;8.702;2022-12-29T02:33:21;98818.16;;;14.51
60003;BMP280;46322;52.018;8.702;2022-12-29T02:49:03;98813.31;;;15.10
60003;BMP280;46322;52.018;8.702;2022-12-29T02:54:03;98791.22;;;14.81
60003;BMP280;46322;52.018;8.702;2022-12-29T02:59:03;98783.22;;;14.95
60003;BMP280;46322;52.018;8.702;2022-12-29T03:04:10;98780.94;;;15.25
60003;BMP280;46322;52.018;8.702;2022-12-29T03:14:25;98771.72;;;14.62
60003;BMP280;46322;52.018;8.702;2022-12-29T03:19:30;98747.75;;;15.19
60003;BMP280;46322;52.018;8.702;2022-12-29T03:24:34;98754.22;;;15.40
60003;BMP280;46322;52.018;8.702;2022-12-29T03:29:37;98762.25;;;14.90
60003;BMP280;46322;52.018;8.702;2022-12-29T03:34:39;98791.97;;;15.03
60003;BMP280;46322;52.018;8.702;2022-12-29T03:39:39;98768.69;;;15.53
60003;BMP280;46322;52.018;8.702;2022-12-29T03:44:41;98760.31;;;15.37
60003;BMP280;46322;52.018;8.702;2022-12-29T03:49:41;98748.13;;;14.86
60003;BMP280;46322;52.018;8.702;2022-12-29T03:54:41;98746.97;;;14.97
60003;BMP280;46322;52.018;8.702;2022-12-29T03:59:41;98743.91;;;15.45
60003;BMP280;46322;52.018;8.702;2022-12-29T04:04:42;98758.44;;;15.23
60003;BMP280;46322;52.018;8.702;2022-12-29T04:09:42;98740.78;;;15.68
60003;BMP280;46322;52.018;8.702;2022-12-29T04:14:42;98752.97;;;15.76
60003;BMP280;46322;52.018;8.702;2022-12-29T04:19:42;98737.69;;;15.80
60003;BMP280;46322;52.018;8.702;2022-12-29T04:24:42;98767.84;;;15.74
60003;BMP280;46322;52.018;8.702;2022-12-29T04:29:42;98758.22;;;15.97
60003;BMP280;46322;52.018;8.702;2022-12-29T04:34:42;98750.38;;;15.44
60003;BMP280;46322;52.018;8.702;2022-12-29T04:39:43;98757.28;;;15.03
60003;BMP280;46322;52.018;8.702;2022-12-29T04:44:43;98751.56;;;15.36
60003;BMP280;46322;52.018;8.702;2022-12-29T04:49:43;98737.88;;;14.88
60003;BMP280;46322;52.018;8.702;2022-12-29T04:54:43;98740.16;;;15.00
60003;BMP280;46322;52.018;8.702;2022-12-29T04:59:43;98737.47;;;15.18
60003;BMP280;46322;52.018;8.702;2022-12-29T05:04:43;98725.66;;;14.65
60003;BMP280;46322;52.018;8.702;2022-12-29T05:09:43;98737.09;;;14.66
60003;BMP280;46322;52.018;8.702;2022-12-29T05:14:44;98731.38;;;15.14
60003;BMP280;46322;52.018;8.702;2022-12-29T05:19:44;98721.44;;;14.86
60003;BMP280;46322;52.018;8.702;2022-12-29T05:24:44;98708.13;;;15.00
60003;BMP280;46322;52.018;8.702;2022-12-29T05:29:44;98715.75;;;14.48
60003;BMP280;46322;52.018;8.702;2022-12-29T05:34:44;98699.75;;;14.52
60003;BMP280;46322;52.018;8.702;2022-12-29T05:39:44;98680.34;;;14.76
60003;BMP280;46322;52.018;8.702;2022-12-29T05:44:44;98687.94;;;14.88
60003;BMP280;46322;52.018;8.702;2022-12-29T05:49:45;98685.66;;;15.01
60003;BMP280;46322;52.018;8.702;2022-12-29T05:54:45;98689.09;;;14.94
60003;BMP280;46322;52.018;8.702;2022-12-29T05:59:45;98682.59;;;15.13
60003;BMP280;46322;52.018;8.702;2022-12-29T06:04:45;98698.91;;;15.26
60003;BMP280;46322;52.018;8.702;2022-12-29T06:09:45;98690.13;;;15.47
60003;BMP280;46322;52.018;8.702;2022-12-29T06:14:45;98709.25;;;14.92
60003;BMP280;46322;52.018;8.702;2022-12-29T06:19:45;98685.25;;;15.17
60003;BMP280;46322;52.018;8.702;2022-12-29T06:24:46;98694.75;;;15.21
60003;BMP280;46322;52.018;8.702;2022-12-29T06:29:46;98708.88;;;15.22
60003;BMP280;46322;52.018;8.702;2022-12-29T06:34:46;98722.00;;;15.89
60003;BMP280;46322;52.018;8.702;2022-12-29T06:39:46;98687.47;;;15.40
60003;BMP280;46322;52.018;8.702;2022-12-29T06:44:46;98746.22;;;15.25
60003;BMP280;46322;52.018;8.702;2022-12-29T06:49:46;98752.66;;;22.21
60003;BMP280;46322;52.018;8.702;2022-12-29T06:54:46;98770.44;;;21.30
60003;BMP280;46322;52.018;8.702;2022-12-29T06:59:47;98765.50;;;22.30
60003;BMP280;46322;52.018;8.702;2022-12-29T07:04:47;98795.16;;;20.34
60003;BMP280;46322;52.018;8.702;2022-12-29T07:09:47;98790.75;;;22.36
60003;BMP280;46322;52.018;8.702;2022-12-29T07:14:47;98798.19;;;21.14
60003;BMP280;46322;52.018;8.702;2022-12-29T07:19:47;98801.00;;;19.97
60003;BMP280;46322;52.018;8.702;2022-12-29T07:24:48;98785.47;;;20.53
60003;BMP280;46322;52.018;8.702;2022-12-29T07:29:48;98792.22;;;20.61
60003;BMP280;46322;52.018;8.702;2022-12-29T07:34:48;71455.81;;;-144.30
60003;BMP280;46322;52.018;8.702;2022-12-29T07:39:48;71455.81;;;-144.30
60003;BMP280;46322;52.018;8.702;2022-12-29T07:44:48;71455.81;;;-144.30
60003;BMP280;46322;52.018;8.702;2022-12-29T07:49:48;71455.81;;;-144.30
60003;BMP280;46322;52.018;8.702;2022-12-29T07:54:48;71455.81;;;-144.30
60003;BMP280;46322;52.018;8.702;2022-12-29T07:59:49;71455.81;;;-144.30
60003;BMP280;46322;52.018;8.702;2022-12-29T08:04:49;71455.81;;;-144.30
60003;BMP280;46322;52.018;8.702;2022-12-29T08:09:49;71455.81;;;-144.30
60003;BMP280;46322;52.018;8.702;2022-12-29T08:14:49;71455.81;;;-144.30
60003;BMP280;46322;52.018;8.702;2022-12-29T08:19:49;71455.81;;;-144.30
60003;BMP280;46322;52.018;8.702;2022-12-29T08:24:49;71455.81;;;-144.30
60003;BMP280;46322;52.018;8.702;2022-12-29T08:29:49;71455.81;;;-144.30
60003;BMP280;46322;52.018;8.702;2022-12-29T08:34:50;71455.81;;;-144.30
60003;BMP280;46322;52.018;8.702;2022-12-29T08:39:50;71455.81;;;-144.30
60003;BMP280;46322;52.018;8.702;2022-12-29T08:44:50;71455.81;;;-144.30
60003;BMP280;46322;52.018;8.702;2022-12-29T08:49:50;71455.81;;;-144.30
60003;BMP280;46322;52.018;8.702;2022-12-29T08:54:50;71455.81;;;-144.30
60003;BMP280;46322;52.018;8.702;2022-12-29T08:59:50;71455.81;;;-144.30
60003;BMP280;46322;52.018;8.702;2022-12-29T09:04:51;71455.81;;;-144.30
60003;BMP280;46322;52.018;8.702;2022-12-29T09:09:51;71455.81;;;-144.30
60003;BMP280;46322;52.018;8.702;2022-12-29T09:14:51;98916.47;;;17.21
60003;BMP280;46322;52.018;8.702;2022-12-29T09:19:51;98907.69;;;16.54
60003;BMP280;46322;52.018;8.702;2022-12-29T09:24:51;98910.19;;;17.42
60003;BMP280;46322;52.018;8.702;2022-12-29T09:29:51;98912.63;;;16.56
60003;BMP280;46322;52.018;8.702;2022-12-29T09:34:52;98911.94;;;17.11
60003;BMP280;46322;52.018;8.702;2022-12-29T09:39:52;98914.72;;;16.96
60003;BMP280;46322;52.018;8.702;2022-12-29T09:44:57;98918.84;;;18.31
60003;BMP280;46322;52.018;8.702;2022-12-29T09:55:23;98937.16;;;17.65
60003;BMP280;46322;52.018;8.702;2022-12-29T10:10:53;98926.91;;;17.05
60003;BMP280;46322;52.018;8.702;2022-12-29T10:21:04;98936.13;;;17.48
60003;BMP280;46322;52.018;8.702;2022-12-29T10:26:07;98943.13;;;17.35
60003;BMP280;46322;52.018;8.702;2022-12-29T10:31:11;98949.78;;;17.13
60003;BMP280;46322;52.018;8.702;2022-12-29T10:36:15;98936.13;;;17.93
60003;BMP280;46322;52.018;8.702;2022-12-29T10:46:54;98931.66;;;17.35
60003;BMP280;46322;52.018;8.702;2022-12-29T10:51:56;98934.66;;;17.44
60003;BMP280;46322;52.018;8.702;2022-12-29T10:56:59;98942.25;;;18.27
60003;BMP280;46322;52.018;8.702;2022-12-29T11:07:00;98910.34;;;17.65
60003;BMP280;46322;52.018;8.702;2022-12-29T11:12:09;98926.16;;;17.52
60003;BMP280;46322;52.018;8.702;2022-12-29T11:17:17;98933.66;;;17.72
60003;BMP280;46322;52.018;8.702;2022-12-29T11:22:21;98917.19;;;18.07
60003;BMP280;46322;52.018;8.702;2022-12-29T11:27:23;98922.78;;;17.45
60003;BMP280;46322;52.018;8.702;2022-12-29T11:32:25;98922.22;;;18.05
60003;BMP280;46322;52.018;8.702;2022-12-29T11:37:27;98923.41;;;18.01
60003;BMP280;46322;52.018;8.702;2022-12-29T11:42:41;98937.28;;;17.92
60003;BMP280;46322;52.018;8.702;2022-12-29T11:47:42;98944.03;;;17.66
60003;BMP280;46322;52.018;8.702;2022-12-29T11:52:44;98941.31;;;18.07
60003;BMP280;46322;52.018;8.702;2022-12-29T11:57:45;98952.97;;;17.93
60003;BMP280;46322;52.018;8.702;2022-12-29T12:03:04;98945.63;;;18.01
60003;BMP280;46322;52.018;8.702;2022-12-29T12:08:12;98943.09;;;17.87
60003;BMP280;46322;52.018;8.702;2022-12-29T12:13:18;98940.75;;;18.26
60003;BMP280;46322;52.018;8.702;2022-12-29T12:18:31;98942.38;;;18.78
60003;BMP280;46322;52.018;8.702;2022-12-29T12:23:40;98955.81;;;17.76
60003;BMP280;46322;52.018;8.702;2022-12-29T12:28:58;98947.94;;;19.17
60003;BMP280;46322;52.018;8.702;2022-12-29T12:34:01;98957.16;;;17.94
60003;BMP280;46322;52.018;8.702;2022-12-29T12:39:06;98962.38;;;17.71
60003;BMP280;46322;52.018;8.702;2022-12-29T13:00:08;98988.38;;;19.07
60003;BMP280;46322;52.018;8.702;2022-12-29T13:05:14;98995.72;;;18.42
60003;BMP280;46322;52.018;8.702;2022-12-29T13:20:40;99029.84;;;18.75
60003;BMP280;46322;52.018;8.702;2022-12-29T13:25:46;99031.03;;;19.28
60003;BMP280;46322;52.018;8.702;2022-12-29T13:35:53;99042.59;;;19.52
60003;BMP280;46322;52.018;8.702;2022-12-29T13:40:55;99041.22;;;18.52
60003;BMP280;46322;52.018;8.702;2022-12-29T13:46:05;99044.59;;;19.21
60003;BMP280;46322;52.018;8.702;2022-12-29T13:51:07;99056.47;;;18.93
60003;BMP280;46322;52.018;8.702;2022-12-29T13:56:19;99074.34;;;17.94
60003;BMP280;46322;52.018;8.702;2022-12-29T14:01:27;99068.91;;;18.46
60003;BMP280;46322;52.018;8.702;2022-12-29T14:06:32;99079.84;;;18.62
60003;BMP280;46322;52.018;8.702;2022-12-29T14:16:33;99097.38;;;19.04
60003;BMP280;46322;52.018;8.702;2022-12-29T14:21:34;99087.38;;;19.08
60003;BMP280;46322;52.018;8.702;2022-12-29T14:26:35;99091.88;;;18.84
60003;BMP280;46322;52.018;8.702;2022-12-29T14:31:35;99120.63;;;18.46
60003;BMP280;46322;52.018;8.702;2022-12-29T14:36:53;99118.88;;;19.04
60003;BMP280;46322;52.018;8.702;2022-12-29T14:47:04;99133.91;;;17.64
60003;BMP280;46322;52.018;8.702;2022-12-29T14:52:16;99126.75;;;18.47
60003;BMP280;46322;52.018;8.702;2022-12-29T14:57:22;99140.06;;;18.20
60003;BMP280;46322;52.018;8.702;2022-12-29T15:02:25;99128.50;;;17.71
60003;BMP280;46322;52.018;8.702;2022-12-29T15:07:26;99131.25;;;18.12
60003;BMP280;46322;52.018;8.702;2022-12-29T15:17:31;99149.63;;;17.58
60003;BMP280;46322;52.018;8.702;2022-12-29T15:22:31;99140.34;;;18.70
60003;BMP280;46322;52.018;8.702;2022-12-29T15:27:31;99153.50;;;18.95
60003;BMP280;46322;52.018;8.702;2022-12-29T15:32:44;99154.22;;;18.20
60003;BMP280;46322;52.018;8.702;2022-12-29T15:37:44;99173.03;;;17.51
60003;BMP280;46322;52.018;8.702;2022-12-29T15:42:53;99178.56;;;17.92
60003;BMP280;46322;52.018;8.702;2022-12-29T15:47:58;99183.00;;;17.47
60003;BMP280;46322;52.018;8.702;2022-12-29T15:52:58;99193.25;;;17.62
60003;BMP280;46322;52.018;8.702;2022-12-29T15:57:59;99186.28;;;18.31
60003;BMP280;46322;52.018;8.702;2022-12-29T16:03:01;99198.13;;;17.85
60003;BMP280;46322;52.018;8.702;2022-12-29T16:08:02;99205.63;;;17.28
60003;BMP280;46322;52.018;8.702;2022-12-29T16:18:24;99210.78;;;19.19
60003;BMP280;46322;52.018;8.702;2022-12-29T16:23:27;99205.22;;;18.61
60003;BMP280;46322;52.018;8.702;2022-12-29T16:28:31;99205.00;;;17.83
60003;BMP280;46322;52.018;8.702;2022-12-29T16:38:38;99191.88;;;18.92
60003;BMP280;46322;52.018;8.702;2022-12-29T16:43:38;99200.94;;;18.19
60003;BMP280;46322;52.018;8.702;2022-12-29T16:48:53;99193.41;;;17.13
60003;BMP280;46322;52.018;8.702;2022-12-29T16:53:54;99180.69;;;18.15
60003;BMP280;46322;52.018;8.702;2022-12-29T16:59:02;99186.19;;;17.93
60003;BMP280;46322;52.018;8.702;2022-12-29T17:04:05;99196.00;;;17.45
60003;BMP280;46322;52.018;8.702;2022-12-29T17:14:31;99182.38;;;16.89
60003;BMP280;46322;52.018;8.702;2022-12-29T17:19:33;99196.34;;;17.43
60003;BMP280;46322;52.018;8.702;2022-12-29T17:24:33;99193.06;;;17.11
60003;BMP280;46322;52.018;8.702;2022-12-29T17:29:37;99194.13;;;18.08
60003;BMP280;46322;52.018;8.702;2022-12-29T17:34:39;99209.44;;;17.23
60003;BMP280;46322;52.018;8.702;2022-12-29T17:39:39;99215.16;;;18.20
60003;BMP280;46322;52.018;8.702;2022-12-29T17:44:39;99230.44;;;17.46
60003;BMP280;46322;52.018;8.702;2022-12-29T17:49:40;99237.38;;;18.13
60003;BMP280;46322;52.018;8.702;2022-12-29T17:54:49;99224.63;;;18.31
60003;BMP280;46322;52.018;8.702;2022-12-29T17:59:50;99236.03;;;17.80
60003;BMP280;46322;52.018;8.702;2022-12-29T18:04:51;99227.59;;;17.78
60003;BMP280;46322;52.018;8.702;2022-12-29T18:09:52;99231.72;;;16.74
60003;BMP280;46322;52.018;8.702;2022-12-29T18:14:52;99253.44;;;17.33
60003;BMP280;46322;52.018;8.702;2022-12-29T18:19:52;99261.47;;;16.23
60003;BMP280;46322;52.018;8.702;2022-12-29T18:24:52;99276.81;;;16.83
60003;BMP280;46322;52.018;8.702;2022-12-29T18:29:52;99307.56;;;15.95
60003;BMP280;46322;52.018;8.702;2022-12-29T18:34:52;99284.16;;;15.74
60003;BMP280;46322;52.018;8.702;2022-12-29T18:39:52;99313.50;;;15.67
60003;BMP280;46322;52.018;8.702;2022-12-29T18:44:53;71455.81;;;-144.30
60003;BMP280;46322;52.018;8.702;2022-12-29T18:49:53;99285.56;;;15.50
60003;BMP280;46322;52.018;8.702;2022-12-29T18:54:53;99302.44;;;15.65
60003;BMP280;46322;52.018;8.702;2022-12-29T18:59:53;99313.28;;;15.28
60003;BMP280;46322;52.018;8.702;2022-12-29T19:04:53;99302.63;;;14.87
60003;BMP280;46322;52.018;8.702;2022-12-29T19:09:53;99303.13;;;15.04
60003;BMP280;46322;52.018;8.702;2022-12-29T19:14:54;99305.81;;;15.00
60003;BMP280;46322;52.018;8.702;2022-12-29T19:19:54;99306.84;;;14.92
60003;BMP280;46322;52.018;8.702;2022-12-29T19:24:54;99320.78;;;14.75
60003;BMP280;46322;52.018;8.702;2022-12-29T19:29:54;99335.09;;;16.03
60003;BMP280;46322;52.018;8.702;2022-12-29T19:34:54;99350.59;;;14.47
60003;BMP280;46322;52.018;8.702;2022-12-29T19:39:54;99333.25;;;15.01
60003;BMP280;46322;52.018;8.702;2022-12-29T19:44:54;99346.59;;;14.63
60003;BMP280;46322;52.018;8.702;2022-12-29T19:49:55;99348.91;;;15.02
60003;BMP280;46322;52.018;8.702;2022-12-29T19:54:55;99349.63;;;15.03
60003;BMP280;46322;52.018;8.702;2022-12-29T19:59:55;99365.31;;;14.67
60003;BMP280;46322;52.018;8.702;2022-12-29T20:04:55;99384.81;;;15.12
60003;BMP280;46322;52.018;8.702;2022-12-29T20:09:56;99365.66;;;15.50
60003;BMP280;46322;52.018;8.702;2022-12-29T20:14:56;99363.13;;;14.76
60003;BMP280;46322;52.018;8.702;2022-12-29T20:19:56;99365.69;;;15.54
60003;BMP280;46322;52.018;8.702;2022-12-29T20:24:56;99390.00;;;15.35
60003;BMP280;46322;52.018;8.702;2022-12-29T20:29:56;99386.06;;;14.84
60003;BMP280;46322;52.018;8.702;2022-12-29T20:34:56;99383.72;;;14.46
60003;BMP280;46322;52.018;8.702;2022-12-29T20:39:56;99398.75;;;14.94
60003;BMP280;46322;52.018;8.702;2022-12-29T20:44:57;99393.63;;;15.16
60003;BMP280;46322;52.018;8.702;2022-12-29T20:49:57;99407.69;;;15.53
60003;BMP280;46322;52.018;8.702;2022-12-29T20:54:57;99409.56;;;16.04
60003;BMP280;46322;52.018;8.702;2022-12-29T20:59:57;99422.16;;;15.08
60003;BMP280;46322;52.018;8.702;2022-12-29T21:04:57;99422.44;;;14.66
60003;BMP280;46322;52.018;8.702;2022-12-29T21:09:57;99420.06;;;15.76
60003;BMP280;46322;52.018;8.702;2022-12-29T21:14:57;99422.84;;;15.42
60003;BMP280;46322;52.018;8.702;2022-12-29T21:19:58;99429.00;;;15.09
60003;BMP280;46322;52.018;8.702;2022-12-29T21:24:58;99440.19;;;15.66
60003;BMP280;46322;52.018;8.702;2022-12-29T21:29:58;99438.66;;;15.21
60003;BMP280;46322;52.018;8.702;2022-12-29T21:34:58;99454.63;;;16.09
60003;BMP280;46322;52.018;8.702;2022-12-29T21:39:58;99469.53;;;15.18
60003;BMP280;46322;52.018;8.702;2022-12-29T21:44:58;99464.66;;;16.26
60003;BMP280;46322;52.018;8.702;2022-12-29T21:49:58;99466.81;;;16.00
60003;BMP280;46322;52.018;8.702;2022-12-29T21:54:59;99470.31;;;16.11
60003;BMP280;46322;52.018;8.702;2022-12-29T21:59:59;99466.78;;;16.03
60003;BMP280;46322;52.018;8.702;2022-12-29T22:04:59;99479.97;;;14.11
60003;BMP280;46322;52.018;8.702;2022-12-29T22:09:59;99484.75;;;15.55
60003;BMP280;46322;52.018;8.702;2022-12-29T22:14:59;99476.03;;;15.61
60003;BMP280;46322;52.018;8.702;2022-12-29T22:19:59;99480.25;;;15.22
60003;BMP280;46322;52.018;8.702;2022-12-29T22:24:59;99490.91;;;16.07
60003;BMP280;46322;52.018;8.702;2022-12-29T22:30:00;99484.66;;;15.07
60003;BMP280;46322;52.018;8.702;2022-12-29T22:35:00;99495.66;;;15.80
60003;BMP280;46322;52.018;8.702;2022-12-29T22:40:02;99502.75;;;15.61
60003;BMP280;46322;52.018;8.702;2022-12-29T22:45:03;99494.91;;;16.34
60003;BMP280;46322;52.018;8.702;2022-12-29T22:50:03;99498.69;;;15.75
60003;BMP280;46322;52.018;8.702;2022-12-29T22:55:04;99522.34;;;15.02
60003;BMP280;46322;52.018;8.702;2022-12-29T23:00:05;99512.44;;;15.77
60003;BMP280;46322;52.018;8.702;2022-12-29T23:05:05;99520.06;;;15.75
60003;BMP280;46322;52.018;8.702;2022-12-29T23:10:06;99523.41;;;16.12
60003;BMP280;46322;52.018;8.702;2022-12-29T23:15:06;99538.44;;;15.43
60003;BMP280;46322;52.018;8.702;2022-12-29T23:20:07;99552.06;;;15.30
60003;BMP280;46322;52.018;8.702;2022-12-29T23:25:07;99545.06;;;15.19
60003;BMP280;46322;52.018;8.702;2022-12-29T23:30:08;99550.31;;;16.37
60003;BMP280;46322;52.018;8.702;2022-12-29T23:35:08;99560.44;;;16.10
60003;BMP280;46322;52.018;8.702;2022-12-29T23:40:08;99575.44;;;16.25
60003;BMP280;46322;52.018;8.702;2022-12-29T23:45:09;99592.09;;;15.68
60003;BMP280;46322;52.018;8.702;2022-12-29T23:50:09;99595.63;;;15.08
60003;BMP280;46322;52.018;8.702;2022-12-29T23:55:09;99606.38;;;15.82
